Time;durP1;ratioP1;P1;durP2;ratioP2;P2;SDS_P1;SDS_P2;PMS_P1;PMS_P2;Temp;Humidity;BMP_temperature;BMP_pressure;BME280_temperature;BME280_humidity;BME280_pressure;Samples;Min_cycle;Max_cycle;Signal;HPM_P1;HPM_P2
2022/04/22 00:00:32;;;;;;;11.10;9.00;;;;;;;;;;5082184;28;20883;-84
2022/04/22 00:02:58;;;;;;;9.67;8.57;;;;;;;;;;5092517;28;20472;-83
2022/04/22 00:05:24;;;;;;;12.40;9.43;;;;;;;;;;5095440;28;20400;-83
2022/04/22 00:07:50;;;;;;;9.73;7.80;;;;;;;;;;5087066;28;20413;-84
2022/04/22 00:10:16;;;;;;;11.27;9.00;;;;;;;;;;5080574;28;20405;-84
2022/04/22 00:12:43;;;;;;;10.80;8.90;;;;;;;;;;5063840;28;20480;-83
2022/04/22 00:15:09;;;;;;;10.90;8.80;;;;;;;;;;5080511;28;20404;-84
2022/04/22 00:17:36;;;;;;;11.63;9.50;;;;;;;;;;5080751;28;20429;-84
2022/04/22 00:20:03;;;;;;;10.43;9.20;;;;;;;;;;5081435;28;20405;-84
2022/04/22 00:22:29;;;;;;;12.90;9.03;;;;;;;;;;5080715;28;20409;-85
2022/04/22 00:24:55;;;;;;;10.43;8.60;;;;;;;;;;5080923;28;20405;-85
2022/04/22 00:27:21;;;;;;;11.60;9.33;;;;;;;;;;5080341;28;20417;-85
2022/04/22 00:29:47;;;;;;;13.07;9.37;;;;;;;;;;5081279;28;20829;-85
2022/04/22 00:32:13;;;;;;;10.40;9.37;;;;;;;;;;5081319;28;20455;-85
2022/04/22 00:34:39;;;;;;;10.40;9.03;;;;;;;;;;5062984;28;20408;-84
2022/04/22 00:37:05;;;;;;;11.07;9.20;;;;;;;;;;5081025;28;20428;-84
2022/04/22 00:39:31;;;;;;;11.87;9.27;;;;;;;;;;5080300;28;20443;-85
2022/04/22 00:41:57;;;;;;;11.80;9.70;;;;;;;;;;5079872;28;20442;-84
2022/04/22 00:44:23;;;;;;;10.40;8.50;;;;;;;;;;5062734;28;20420;-85
2022/04/22 00:46:50;;;;;;;11.57;9.33;;;;;;;;;;5080357;28;20428;-85
2022/04/22 00:49:16;;;;;;;15.60;9.80;;;;;;;;;;5062056;28;20424;-85
2022/04/22 00:51:44;;;;;;;10.80;8.93;;;;;;;;;;5080203;28;20552;-85
2022/04/22 00:54:10;;;;;;;12.83;9.90;;;;;;;;;;5080093;28;20486;-84
2022/04/22 00:56:36;;;;;;;11.60;9.33;;;;;;;;;;5080066;28;20420;-84
2022/04/22 00:59:03;;;;;;;12.63;9.80;;;;;;;;;;5080211;28;20392;-84
2022/04/22 01:01:30;;;;;;;11.70;9.47;;;;;;;;;;5079532;28;20472;-84
2022/04/22 01:09:49;;;;;;;11.97;9.77;;;;;;;;;;5075539;28;20412;-84
2022/04/22 01:12:19;;;;;;;11.37;9.83;;;;;;;;;;5079982;28;20494;-85
2022/04/22 01:14:45;;;;;;;13.10;10.03;;;;;;;;;;5057141;28;20417;-84
2022/04/22 01:17:12;;;;;;;11.87;9.13;;;;;;;;;;5083517;22;20492;-81
2022/04/22 01:19:38;;;;;;;13.67;10.07;;;;;;;;;;5047981;28;20413;-81
2022/04/22 01:22:05;;;;;;;12.30;9.87;;;;;;;;;;5048681;28;20402;-80
2022/04/22 01:24:31;;;;;;;11.40;8.80;;;;;;;;;;5049562;28;20422;-81
2022/04/22 01:26:58;;;;;;;14.90;9.00;;;;;;;;;;5048951;28;20418;-80
2022/04/22 01:29:24;;;;;;;11.73;10.43;;;;;;;;;;5048892;28;20426;-80
2022/04/22 01:31:50;;;;;;;13.80;10.50;;;;;;;;;;5031158;28;20454;-81
2022/04/22 01:34:16;;;;;;;10.30;8.90;;;;;;;;;;5048192;28;20410;-80
2022/04/22 01:36:42;;;;;;;10.53;8.50;;;;;;;;;;5049072;28;20418;-82
2022/04/22 01:39:08;;;;;;;12.10;10.30;;;;;;;;;;5049219;28;20458;-81
2022/04/22 01:41:34;;;;;;;11.40;9.53;;;;;;;;;;5049305;28;20456;-80
2022/04/22 01:44:00;;;;;;;11.60;9.50;;;;;;;;;;5049010;28;20442;-81
2022/04/22 01:46:27;;;;;;;10.57;9.13;;;;;;;;;;5048480;28;20430;-81
2022/04/22 01:48:53;;;;;;;12.47;9.93;;;;;;;;;;5048745;28;20425;-81
2022/04/22 01:51:19;;;;;;;10.70;8.93;;;;;;;;;;5048727;28;20449;-81
2022/04/22 01:53:45;;;;;;;14.53;9.83;;;;;;;;;;5048737;28;20457;-81
2022/04/22 01:56:11;;;;;;;11.77;10.07;;;;;;;;;;5048251;28;20424;-81
2022/04/22 01:58:37;;;;;;;13.23;10.27;;;;;;;;;;5048715;28;20409;-81
2022/04/22 02:01:03;;;;;;;11.17;8.27;;;;;;;;;;5048899;28;20429;-82
2022/04/22 02:03:29;;;;;;;11.43;9.30;;;;;;;;;;5048207;28;20420;-81
2022/04/22 02:05:55;;;;;;;12.20;9.67;;;;;;;;;;5048504;28;20779;-82
2022/04/22 02:08:22;;;;;;;10.60;9.50;;;;;;;;;;5048543;28;20402;-82
2022/04/22 02:10:48;;;;;;;12.30;10.13;;;;;;;;;;5047942;28;20481;-82
2022/04/22 02:13:14;;;;;;;11.77;9.70;;;;;;;;;;5049039;28;20403;-82
2022/04/22 02:15:40;;;;;;;16.23;10.27;;;;;;;;;;5051330;28;20403;-82
2022/04/22 02:18:06;;;;;;;12.70;9.77;;;;;;;;;;5047362;28;20502;-80
2022/04/22 02:20:33;;;;;;;14.90;9.40;;;;;;;;;;5042910;28;20773;-82
2022/04/22 02:22:59;;;;;;;15.87;10.27;;;;;;;;;;5042042;28;20403;-80
2022/04/22 02:25:25;;;;;;;13.73;10.13;;;;;;;;;;5042400;28;20433;-81
2022/04/22 02:30:36;;;;;;;12.97;10.10;;;;;;;;;;5044605;28;20465;-82
2022/04/22 02:33:02;;;;;;;12.80;9.00;;;;;;;;;;5049412;28;20403;-81
2022/04/22 02:35:28;;;;;;;12.67;10.20;;;;;;;;;;5047531;28;20430;-82
2022/04/22 02:37:55;;;;;;;13.27;11.00;;;;;;;;;;5050732;28;20445;-82
2022/04/22 02:45:51;;;;;;;11.13;9.70;;;;;;;;;;5051298;28;20405;-81
2022/04/22 02:48:17;;;;;;;13.20;10.20;;;;;;;;;;5051109;28;20413;-79
2022/04/22 02:50:43;;;;;;;12.97;10.00;;;;;;;;;;5033105;28;20454;-80
2022/04/22 02:53:10;;;;;;;12.03;10.23;;;;;;;;;;5033299;28;20489;-80
2022/04/22 02:55:38;;;;;;;15.13;12.30;;;;;;;;;;5051554;28;20460;-81
2022/04/22 02:58:04;;;;;;;14.33;11.30;;;;;;;;;;5049972;28;20427;-81
2022/04/22 03:00:30;;;;;;;16.87;10.70;;;;;;;;;;5050650;28;20486;-81
2022/04/22 03:02:56;;;;;;;13.90;10.93;;;;;;;;;;5050606;28;20418;-81
2022/04/22 03:05:22;;;;;;;12.47;10.07;;;;;;;;;;5051515;28;20978;-81
2022/04/22 03:07:48;;;;;;;14.00;10.40;;;;;;;;;;5050158;28;20917;-80
2022/04/22 03:10:14;;;;;;;14.57;11.33;;;;;;;;;;5032945;28;20472;-81
2022/04/22 03:12:41;;;;;;;13.77;11.87;;;;;;;;;;5051388;28;20425;-81
2022/04/22 03:15:08;;;;;;;13.77;11.80;;;;;;;;;;5051064;28;20913;-81
2022/04/22 03:17:34;;;;;;;13.90;11.00;;;;;;;;;;5050945;28;20438;-81
2022/04/22 03:20:00;;;;;;;16.90;11.80;;;;;;;;;;5033611;28;20417;-80
2022/04/22 03:22:26;;;;;;;16.50;11.60;;;;;;;;;;5050463;28;20406;-81
2022/04/22 03:24:52;;;;;;;19.20;11.90;;;;;;;;;;5050327;28;20407;-80
2022/04/22 03:27:18;;;;;;;14.50;10.80;;;;;;;;;;5050006;28;20521;-80
2022/04/22 03:29:44;;;;;;;21.00;11.47;;;;;;;;;;5051090;28;20421;-80
2022/04/22 03:32:11;;;;;;;14.17;10.80;;;;;;;;;;5050503;28;20474;-81
2022/04/22 03:34:37;;;;;;;12.87;10.90;;;;;;;;;;5051091;28;20421;-81
2022/04/22 03:37:03;;;;;;;17.50;12.37;;;;;;;;;;5050018;28;20509;-81
2022/04/22 03:39:29;;;;;;;16.40;11.47;;;;;;;;;;5050419;28;20428;-81
2022/04/22 03:41:55;;;;;;;18.60;11.50;;;;;;;;;;5057900;28;20432;-81
2022/04/22 03:44:21;;;;;;;14.77;10.90;;;;;;;;;;5069700;28;20416;-81
2022/04/22 03:46:47;;;;;;;13.97;11.27;;;;;;;;;;5070684;28;20421;-81
2022/04/22 03:49:13;;;;;;;19.30;12.57;;;;;;;;;;5070383;28;20426;-81
2022/04/22 03:51:39;;;;;;;13.50;11.43;;;;;;;;;;5071426;28;20487;-80
2022/04/22 03:54:05;;;;;;;17.67;12.40;;;;;;;;;;5071983;28;20402;-80
2022/04/22 03:59:17;;;;;;;15.60;12.77;;;;;;;;;;5070420;28;20381;-81
2022/04/22 04:01:44;;;;;;;15.97;11.90;;;;;;;;;;5069589;28;20402;-81
2022/04/22 04:04:10;;;;;;;18.93;12.20;;;;;;;;;;5070594;28;20401;-81
2022/04/22 04:06:36;;;;;;;14.20;11.67;;;;;;;;;;5070143;28;20417;-81
2022/04/22 04:17:17;;;;;;;16.07;12.70;;;;;;;;;;5069652;28;20467;-81
2022/04/22 04:25:12;;;;;;;17.97;13.87;;;;;;;;;;5069637;28;20749;-81
2022/04/22 04:27:39;;;;;;;18.57;13.83;;;;;;;;;;5069133;28;20441;-81
2022/04/22 04:30:05;;;;;;;15.60;11.90;;;;;;;;;;5069852;28;20771;-81
2022/04/22 04:32:31;;;;;;;20.77;14.70;;;;;;;;;;5051750;28;20473;-81
2022/04/22 04:34:57;;;;;;;18.97;12.67;;;;;;;;;;5069749;28;20390;-82
2022/04/22 04:37:23;;;;;;;17.80;12.83;;;;;;;;;;5068042;28;20410;-81
2022/04/22 04:39:49;;;;;;;15.07;12.93;;;;;;;;;;5068673;28;20398;-81
2022/04/22 04:42:16;;;;;;;16.50;13.20;;;;;;;;;;5069330;28;20420;-81
2022/04/22 04:44:42;;;;;;;15.50;13.33;;;;;;;;;;5052047;28;20417;-82
2022/04/22 04:47:08;;;;;;;16.80;13.37;;;;;;;;;;5069367;28;20432;-81
2022/04/22 04:49:34;;;;;;;15.60;13.57;;;;;;;;;;5051237;28;20405;-81
2022/04/22 04:52:00;;;;;;;15.97;12.63;;;;;;;;;;5069425;28;20522;-81
2022/04/22 04:54:26;;;;;;;16.83;13.50;;;;;;;;;;5069343;28;20406;-81
2022/04/22 04:56:52;;;;;;;16.00;13.50;;;;;;;;;;5068896;28;20428;-81
2022/04/22 04:59:18;;;;;;;19.73;14.00;;;;;;;;;;5069451;28;20406;-81
2022/04/22 05:01:44;;;;;;;21.47;13.50;;;;;;;;;;5069091;28;20770;-81
2022/04/22 05:04:10;;;;;;;18.10;13.60;;;;;;;;;;5069503;28;20772;-81
2022/04/22 05:06:36;;;;;;;23.53;12.93;;;;;;;;;;5050782;28;20434;-81
2022/04/22 05:09:03;;;;;;;17.80;13.23;;;;;;;;;;5068836;28;20467;-81
2022/04/22 05:11:29;;;;;;;17.10;13.37;;;;;;;;;;5068090;28;20453;-81
2022/04/22 05:13:55;;;;;;;17.30;13.10;;;;;;;;;;5068719;28;20401;-81
2022/04/22 05:16:21;;;;;;;17.23;14.70;;;;;;;;;;5068845;28;20430;-81
2022/04/22 05:18:47;;;;;;;17.60;12.97;;;;;;;;;;5051210;28;20410;-81
2022/04/22 05:21:13;;;;;;;18.93;13.40;;;;;;;;;;5068544;28;20406;-81
2022/04/22 05:23:39;;;;;;;18.67;14.00;;;;;;;;;;5068745;28;20409;-81
2022/04/22 05:26:05;;;;;;;18.77;13.33;;;;;;;;;;5068325;28;20425;-81
2022/04/22 05:28:31;;;;;;;14.60;13.07;;;;;;;;;;5068767;28;20465;-81
2022/04/22 05:33:43;;;;;;;19.70;15.07;;;;;;;;;;5067969;28;20392;-81
2022/04/22 05:36:09;;;;;;;20.17;14.17;;;;;;;;;;5068563;28;20413;-82
2022/04/22 05:38:35;;;;;;;16.37;13.27;;;;;;;;;;5067863;28;20401;-81
2022/04/22 05:41:02;;;;;;;21.00;13.67;;;;;;;;;;5061056;28;20398;-82
2022/04/22 05:43:28;;;;;;;13.37;11.87;;;;;;;;;;5057285;28;20834;-81
2022/04/22 05:45:54;;;;;;;14.70;12.63;;;;;;;;;;5058264;28;20406;-81
2022/04/22 05:48:21;;;;;;;15.10;12.27;;;;;;;;;;5064153;28;20409;-81
2022/04/22 05:50:47;;;;;;;18.10;14.13;;;;;;;;;;5065701;28;20460;-81
2022/04/22 05:53:13;;;;;;;14.80;12.37;;;;;;;;;;5068888;28;20409;-81
2022/04/22 05:55:39;;;;;;;16.40;12.57;;;;;;;;;;5069630;28;20402;-81
2022/04/22 05:58:05;;;;;;;17.47;14.87;;;;;;;;;;5067487;28;20420;-82
2022/04/22 06:00:32;;;;;;;23.23;12.40;;;;;;;;;;5070144;28;20402;-81
2022/04/22 06:02:58;;;;;;;13.53;12.13;;;;;;;;;;5070296;28;20420;-81
2022/04/22 06:05:25;;;;;;;17.30;12.60;;;;;;;;;;5073099;28;20463;-80
2022/04/22 06:10:31;;;;;;;16.70;13.20;;;;;;;;;;5073561;28;20485;-81
2022/04/22 06:10:39;;;;;;;18.30;13.20;;;;;;;;;;5072062;28;20536;-81
2022/04/22 06:13:06;;;;;;;17.90;12.70;;;;;;;;;;5073161;28;20390;-81
2022/04/22 06:15:32;;;;;;;15.00;11.90;;;;;;;;;;5072416;28;20394;-80
2022/04/22 06:17:59;;;;;;;18.13;12.60;;;;;;;;;;5072125;28;20433;-80
2022/04/22 06:20:25;;;;;;;19.67;14.20;;;;;;;;;;5072277;28;20401;-81
2022/04/22 06:22:51;;;;;;;17.40;13.77;;;;;;;;;;5073716;28;20382;-79
2022/04/22 06:25:17;;;;;;;17.97;13.80;;;;;;;;;;5073752;28;20402;-81
2022/04/22 06:27:44;;;;;;;18.50;13.37;;;;;;;;;;5071447;28;20421;-80
2022/04/22 06:30:14;;;;;;;17.40;12.97;;;;;;;;;;5072348;28;20405;-81
2022/04/22 06:32:42;;;;;;;13.83;12.10;;;;;;;;;;5075427;28;20483;-81
2022/04/22 06:35:08;;;;;;;18.10;13.67;;;;;;;;;;5078005;28;20370;-80
2022/04/22 06:37:36;;;;;;;16.30;12.60;;;;;;;;;;5078439;28;20444;-79
2022/04/22 06:45:48;;;;;;;18.60;12.40;;;;;;;;;;5072204;28;20439;-81
2022/04/22 06:48:21;;;;;;;14.40;12.03;;;;;;;;;;5072395;28;20377;-80
2022/04/22 06:50:48;;;;;;;15.80;12.00;;;;;;;;;;5072229;28;20445;-81
2022/04/22 06:53:15;;;;;;;12.73;11.43;;;;;;;;;;5071979;28;20549;-81
2022/04/22 06:55:41;;;;;;;17.80;13.20;;;;;;;;;;5072427;28;20408;-81
2022/04/22 06:58:09;;;;;;;15.77;13.20;;;;;;;;;;5071694;28;20402;-81
2022/04/22 07:00:35;;;;;;;15.27;12.57;;;;;;;;;;5071540;28;20402;-81
2022/04/22 07:03:01;;;;;;;15.30;11.97;;;;;;;;;;5072102;28;20409;-81
2022/04/22 07:05:27;;;;;;;13.63;11.87;;;;;;;;;;5071867;28;20425;-81
2022/04/22 07:07:53;;;;;;;14.10;12.20;;;;;;;;;;5071300;28;20430;-81
2022/04/22 07:10:20;;;;;;;14.70;10.80;;;;;;;;;;5071668;28;20402;-81
2022/04/22 07:12:46;;;;;;;15.80;12.10;;;;;;;;;;5071428;28;20459;-81
2022/04/22 07:15:12;;;;;;;14.90;10.40;;;;;;;;;;5071436;28;20398;-81
2022/04/22 07:17:40;;;;;;;13.93;11.43;;;;;;;;;;5074871;22;20883;-84
2022/04/22 07:20:10;;;;;;;16.93;12.70;;;;;;;;;;5027040;28;20466;-84
2022/04/22 07:22:37;;;;;;;14.17;11.77;;;;;;;;;;5025353;28;20399;-84
2022/04/22 07:25:04;;;;;;;14.20;10.70;;;;;;;;;;5044932;28;20398;-84
2022/04/22 07:27:32;;;;;;;14.93;12.03;;;;;;;;;;5043839;28;20498;-83
2022/04/22 07:29:59;;;;;;;13.27;11.07;;;;;;;;;;5043705;28;20422;-84
2022/04/22 07:32:26;;;;;;;14.27;11.57;;;;;;;;;;5043438;28;20500;-84
2022/04/22 07:34:52;;;;;;;14.10;12.10;;;;;;;;;;5043403;28;20447;-83
2022/04/22 07:37:18;;;;;;;13.93;12.40;;;;;;;;;;5041980;28;20914;-84
2022/04/22 07:39:45;;;;;;;14.20;11.47;;;;;;;;;;5044375;28;20514;-82
2022/04/22 07:42:21;;;;;;;15.37;11.73;;;;;;;;;;5037917;28;20414;-84
2022/04/22 07:47:35;;;;;;;15.23;12.00;;;;;;;;;;5039479;28;20488;-83
2022/04/22 07:50:05;;;;;;;14.30;11.70;;;;;;;;;;5023742;28;20420;-83
2022/04/22 07:52:31;;;;;;;15.07;12.43;;;;;;;;;;5053473;28;20444;-83
2022/04/22 07:54:57;;;;;;;14.60;12.33;;;;;;;;;;5066058;28;20418;-83
2022/04/22 07:57:23;;;;;;;13.00;11.60;;;;;;;;;;5063594;28;20525;-82
2022/04/22 07:59:50;;;;;;;15.40;11.97;;;;;;;;;;5062827;28;20413;-83
2022/04/22 08:02:16;;;;;;;17.40;12.60;;;;;;;;;;5062272;28;20405;-84
2022/04/22 08:04:42;;;;;;;21.60;12.57;;;;;;;;;;5062901;28;20401;-83
2022/04/22 08:07:09;;;;;;;13.83;10.77;;;;;;;;;;5061650;28;20429;-84
2022/04/22 08:09:35;;;;;;;12.80;10.90;;;;;;;;;;5061716;28;20429;-83
2022/04/22 08:12:01;;;;;;;14.07;11.30;;;;;;;;;;5070147;28;20457;-81
2022/04/22 08:14:28;;;;;;;13.60;11.40;;;;;;;;;;5070688;28;20508;-82
2022/04/22 08:16:56;;;;;;;15.00;11.53;;;;;;;;;;5059790;28;20426;-82
2022/04/22 08:19:23;;;;;;;14.13;12.63;;;;;;;;;;5043240;28;20438;-83
2022/04/22 08:21:49;;;;;;;12.50;11.20;;;;;;;;;;5042919;28;20410;-83
2022/04/22 08:24:15;;;;;;;15.70;11.13;;;;;;;;;;5061052;28;20484;-83
2022/04/22 08:26:41;;;;;;;11.70;10.03;;;;;;;;;;5060063;28;20448;-83
2022/04/22 08:29:07;;;;;;;12.33;11.03;;;;;;;;;;5042925;28;20444;-83
2022/04/22 08:31:33;;;;;;;13.43;10.57;;;;;;;;;;5074524;28;20460;-85
2022/04/22 08:33:59;;;;;;;14.57;12.00;;;;;;;;;;5056855;28;20445;-85
2022/04/22 08:36:28;;;;;;;11.10;9.87;;;;;;;;;;5046586;28;20459;-84
2022/04/22 08:38:55;;;;;;;12.10;9.70;;;;;;;;;;5063549;28;20812;-84
2022/04/22 08:41:21;;;;;;;11.00;9.90;;;;;;;;;;5061896;28;20410;-85
2022/04/22 08:43:48;;;;;;;15.03;9.60;;;;;;;;;;5071033;28;20414;-84
2022/04/22 08:51:44;;;;;;;13.03;9.50;;;;;;;;;;5042416;28;20835;-83
2022/04/22 08:54:12;;;;;;;11.27;10.10;;;;;;;;;;5041919;28;20406;-83
2022/04/22 08:56:39;;;;;;;12.13;10.40;;;;;;;;;;5045295;28;20419;-82
2022/04/22 08:59:05;;;;;;;11.80;10.53;;;;;;;;;;5057360;28;20421;-83
2022/04/22 09:01:31;;;;;;;11.83;9.50;;;;;;;;;;5044338;28;20551;-83
2022/04/22 09:03:57;;;;;;;10.60;9.50;;;;;;;;;;5023046;28;20414;-83
2022/04/22 09:06:25;;;;;;;12.97;10.60;;;;;;;;;;5040419;28;20568;-82
2022/04/22 09:08:52;;;;;;;12.00;10.80;;;;;;;;;;5041198;28;20922;-83
2022/04/22 09:11:18;;;;;;;12.17;10.67;;;;;;;;;;5041137;28;20474;-83
2022/04/22 09:13:44;;;;;;;13.13;10.03;;;;;;;;;;5022561;28;20907;-83
2022/04/22 09:16:18;;;;;;;18.27;11.27;;;;;;;;;;5040085;28;20414;-83
2022/04/22 09:18:46;;;;;;;15.80;9.83;;;;;;;;;;5005970;28;20448;-84
2022/04/22 09:21:18;;;;;;;11.37;10.27;;;;;;;;;;5039330;28;20441;-83
2022/04/22 09:23:48;;;;;;;13.87;9.90;;;;;;;;;;5061030;28;20402;-84
2022/04/22 09:26:24;;;;;;;12.20;9.53;;;;;;;;;;5063028;28;20405;-83
2022/04/22 09:28:59;;;;;;;12.53;10.30;;;;;;;;;;5063736;28;20409;-82
2022/04/22 09:31:26;;;;;;;12.30;9.80;;;;;;;;;;5063308;28;20440;-84
2022/04/22 09:33:53;;;;;;;10.33;9.30;;;;;;;;;;5045897;28;20417;-84
2022/04/22 09:44:54;;;;;;;10.53;9.43;;;;;;;;;;5069181;28;20698;-84
2022/04/22 09:47:20;;;;;;;16.80;10.40;;;;;;;;;;5062747;28;20428;-85
2022/04/22 09:49:46;;;;;;;14.97;11.47;;;;;;;;;;5063307;28;20769;-85
2022/04/22 09:52:13;;;;;;;13.03;9.23;;;;;;;;;;5045873;28;20460;-85
2022/04/22 09:54:40;;;;;;;13.13;10.93;;;;;;;;;;5062699;28;20485;-84
2022/04/22 09:57:06;;;;;;;14.53;10.73;;;;;;;;;;5044038;28;20491;-84
2022/04/22 09:59:39;;;;;;;10.93;9.80;;;;;;;;;;5064810;28;20421;-83
2022/04/22 10:02:06;;;;;;;12.57;9.83;;;;;;;;;;5064026;28;20416;-85
2022/04/22 10:04:33;;;;;;;11.03;9.90;;;;;;;;;;5064744;28;20410;-84
2022/04/22 10:07:01;;;;;;;12.20;11.00;;;;;;;;;;5064260;28;20456;-85
2022/04/22 10:09:28;;;;;;;10.83;9.53;;;;;;;;;;5065217;28;20501;-85
2022/04/22 10:11:56;;;;;;;11.10;9.73;;;;;;;;;;5067664;28;20456;-83
2022/04/22 10:14:44;;;;;;;15.40;10.37;;;;;;;;;;5064054;28;20409;-86
2022/04/22 10:17:11;;;;;;;11.27;9.70;;;;;;;;;;5205295;22;20486;-83
2022/04/22 10:19:37;;;;;;;12.00;10.70;;;;;;;;;;5078740;28;20401;-83
2022/04/22 10:22:04;;;;;;;11.37;10.10;;;;;;;;;;5065065;28;20723;-83
2022/04/22 10:24:31;;;;;;;11.23;10.13;;;;;;;;;;5045917;28;20435;-84
2022/04/22 10:26:59;;;;;;;11.57;9.30;;;;;;;;;;5065371;28;20563;-84
2022/04/22 10:29:25;;;;;;;12.80;10.37;;;;;;;;;;5063669;28;20444;-83
2022/04/22 10:31:51;;;;;;;11.00;9.90;;;;;;;;;;5064052;28;20479;-85
2022/04/22 10:34:17;;;;;;;14.33;11.73;;;;;;;;;;5063745;28;20405;-84
2022/04/22 10:36:44;;;;;;;14.97;12.17;;;;;;;;;;5062393;28;20520;-84
2022/04/22 10:39:10;;;;;;;12.50;11.17;;;;;;;;;;5065923;28;20745;-83
2022/04/22 10:41:48;;;;;;;14.80;12.00;;;;;;;;;;5065809;28;20460;-84
2022/04/22 10:47:14;;;;;;;12.17;10.87;;;;;;;;;;5069349;28;20851;-84
2022/04/22 10:49:41;;;;;;;11.67;10.00;;;;;;;;;;5072532;28;20390;-84
2022/04/22 10:52:10;;;;;;;12.20;10.80;;;;;;;;;;5062096;28;20499;-83
2022/04/22 10:54:52;;;;;;;12.77;11.23;;;;;;;;;;5060369;28;20402;-84
2022/04/22 10:57:25;;;;;;;12.43;10.30;;;;;;;;;;5059972;28;20432;-83
2022/04/22 11:00:12;;;;;;;12.03;10.47;;;;;;;;;;5061051;28;20416;-84
2022/04/22 11:02:42;;;;;;;13.93;9.40;;;;;;;;;;5044585;28;20929;-84
2022/04/22 11:05:20;;;;;;;12.93;10.80;;;;;;;;;;5062024;28;20409;-84
2022/04/22 11:07:57;;;;;;;11.67;10.13;;;;;;;;;;5061759;28;20949;-84
2022/04/22 11:10:49;;;;;;;13.57;11.37;;;;;;;;;;5061993;28;20749;-85
2022/04/22 11:13:34;;;;;;;15.60;11.37;;;;;;;;;;5062457;28;20402;-84
2022/04/22 11:16:30;;;;;;;13.30;10.70;;;;;;;;;;5049905;28;20410;-84
2022/04/22 11:19:10;;;;;;;14.80;11.43;;;;;;;;;;5068124;28;20437;-85
2022/04/22 11:21:36;;;;;;;15.23;11.10;;;;;;;;;;5060244;28;20405;-84
2022/04/22 11:24:14;;;;;;;14.63;11.23;;;;;;;;;;5062662;28;20402;-84
2022/04/22 11:26:40;;;;;;;12.13;10.83;;;;;;;;;;5063775;28;20917;-84
2022/04/22 11:29:10;;;;;;;11.80;10.60;;;;;;;;;;5064940;28;20408;-82
2022/04/22 11:31:36;;;;;;;12.53;9.93;;;;;;;;;;5073122;28;20492;-82
2022/04/22 11:34:08;;;;;;;12.97;11.50;;;;;;;;;;5077715;28;20432;-83
2022/04/22 11:36:47;;;;;;;11.77;9.87;;;;;;;;;;5068688;28;20418;-84
2022/04/22 11:39:23;;;;;;;12.80;10.77;;;;;;;;;;5064370;28;20433;-85
2022/04/22 11:41:53;;;;;;;11.43;10.17;;;;;;;;;;5063373;28;20402;-84
2022/04/22 11:44:20;;;;;;;13.07;10.50;;;;;;;;;;5063457;28;20492;-85
2022/04/22 11:46:46;;;;;;;10.77;9.67;;;;;;;;;;5061791;28;20437;-85
2022/04/22 11:49:13;;;;;;;13.33;10.03;;;;;;;;;;5045273;28;20460;-83
2022/04/22 11:51:41;;;;;;;11.70;10.37;;;;;;;;;;5063459;28;20460;-85
2022/04/22 11:54:07;;;;;;;11.30;10.07;;;;;;;;;;5045274;28;20500;-85
2022/04/22 11:56:35;;;;;;;12.70;11.20;;;;;;;;;;5061638;28;20428;-85
2022/04/22 11:59:02;;;;;;;14.77;10.63;;;;;;;;;;5061406;28;20394;-85
2022/04/22 12:08:00;;;;;;;13.17;10.80;;;;;;;;;;5062820;28;20774;-83
2022/04/22 12:09:51;;;;;;;14.40;12.03;;;;;;;;;;5061363;28;20881;-84
2022/04/22 12:12:17;;;;;;;13.00;11.37;;;;;;;;;;5062487;28;20453;-84
2022/04/22 12:14:43;;;;;;;12.07;10.10;;;;;;;;;;5044534;28;20438;-84
2022/04/22 12:17:09;;;;;;;12.43;11.17;;;;;;;;;;5061452;28;20453;-83
2022/04/22 12:19:35;;;;;;;12.37;11.13;;;;;;;;;;5061916;28;20436;-85
2022/04/22 12:22:01;;;;;;;12.57;11.27;;;;;;;;;;5061704;28;20409;-84
2022/04/22 12:24:27;;;;;;;16.67;11.50;;;;;;;;;;5061773;28;20408;-84
2022/04/22 12:26:54;;;;;;;13.17;11.83;;;;;;;;;;5060709;28;20421;-85
2022/04/22 12:29:24;;;;;;;13.30;11.10;;;;;;;;;;5042791;28;20801;-85
2022/04/22 12:31:50;;;;;;;12.80;10.43;;;;;;;;;;5061266;28;20517;-85
2022/04/22 12:34:31;;;;;;;12.17;10.97;;;;;;;;;;5042833;28;20457;-85
2022/04/22 12:36:57;;;;;;;14.00;10.90;;;;;;;;;;5060688;28;20429;-85
2022/04/22 12:39:34;;;;;;;11.83;10.60;;;;;;;;;;5061534;28;20416;-84
2022/04/22 12:42:00;;;;;;;13.13;11.73;;;;;;;;;;5076388;28;20412;-83
2022/04/22 12:44:26;;;;;;;16.10;11.97;;;;;;;;;;5075065;28;20404;-84
2022/04/22 12:52:32;;;;;;;13.63;11.80;;;;;;;;;;5063516;28;20505;-84
2022/04/22 12:55:18;;;;;;;13.60;10.80;;;;;;;;;;5059649;28;20743;-83
2022/04/22 12:57:44;;;;;;;12.73;11.40;;;;;;;;;;5064602;28;20428;-85
2022/04/22 13:00:14;;;;;;;12.03;10.63;;;;;;;;;;5062021;28;20882;-83
2022/04/22 13:02:40;;;;;;;14.23;12.17;;;;;;;;;;5061422;28;20410;-83
2022/04/22 13:05:07;;;;;;;15.00;11.93;;;;;;;;;;5061647;28;20469;-84
2022/04/22 13:07:40;;;;;;;13.17;10.67;;;;;;;;;;5061007;28;20437;-85
2022/04/22 13:10:15;;;;;;;12.30;11.00;;;;;;;;;;5060384;28;20433;-84
2022/04/22 13:12:41;;;;;;;12.17;10.50;;;;;;;;;;5061658;28;20852;-84
2022/04/22 13:15:12;;;;;;;16.00;11.40;;;;;;;;;;5062160;28;20401;-84
2022/04/22 13:17:43;;;;;;;11.67;10.37;;;;;;;;;;5094286;22;20560;-85
2022/04/22 13:20:09;;;;;;;14.43;11.63;;;;;;;;;;5085620;28;20407;-85
2022/04/22 13:22:35;;;;;;;11.87;10.13;;;;;;;;;;5068852;28;20408;-86
2022/04/22 13:25:02;;;;;;;12.70;11.30;;;;;;;;;;5086010;28;20415;-86
2022/04/22 13:27:28;;;;;;;13.07;11.03;;;;;;;;;;5086649;28;20428;-85
2022/04/22 13:29:54;;;;;;;12.90;11.60;;;;;;;;;;5086506;28;20396;-85
2022/04/22 13:32:20;;;;;;;12.70;11.37;;;;;;;;;;5086831;28;20524;-86
2022/04/22 13:34:46;;;;;;;15.70;12.50;;;;;;;;;;5087297;28;20772;-86
2022/04/22 13:37:12;;;;;;;14.60;12.00;;;;;;;;;;5086349;28;20504;-85
2022/04/22 13:39:38;;;;;;;12.60;10.87;;;;;;;;;;5071347;28;20413;-85
2022/04/22 13:42:05;;;;;;;12.20;10.80;;;;;;;;;;5086750;28;20531;-85
2022/04/22 13:52:46;;;;;;;16.10;11.50;;;;;;;;;;5046480;28;20433;-86
2022/04/22 13:55:12;;;;;;;12.00;10.43;;;;;;;;;;5046419;28;20407;-85
2022/04/22 13:57:38;;;;;;;10.63;9.57;;;;;;;;;;5047355;28;20427;-85
2022/04/22 14:00:05;;;;;;;10.13;9.23;;;;;;;;;;5066673;28;20405;-85
2022/04/22 14:02:31;;;;;;;15.77;9.93;;;;;;;;;;5068557;28;20424;-85
2022/04/22 14:04:57;;;;;;;10.40;9.30;;;;;;;;;;5066969;28;20428;-87
2022/04/22 14:07:23;;;;;;;11.90;10.30;;;;;;;;;;5069614;28;20446;-87
2022/04/22 14:09:49;;;;;;;10.30;9.30;;;;;;;;;;5067075;28;20459;-86
2022/04/22 14:12:16;;;;;;;10.50;9.43;;;;;;;;;;5069446;28;20453;-86
2022/04/22 14:14:43;;;;;;;11.67;9.10;;;;;;;;;;5068789;28;20592;-86
2022/04/22 14:17:12;;;;;;;11.63;9.50;;;;;;;;;;5068545;28;20425;-87
2022/04/22 14:19:38;;;;;;;10.50;9.50;;;;;;;;;;5068479;28;20451;-86
2022/04/22 14:22:05;;;;;;;11.10;9.37;;;;;;;;;;5069802;28;20400;-86
2022/04/22 14:24:31;;;;;;;15.13;10.40;;;;;;;;;;5068681;28;20410;-84
2022/04/22 14:27:01;;;;;;;12.30;9.90;;;;;;;;;;5068377;28;20420;-86
2022/04/22 14:29:27;;;;;;;14.00;12.00;;;;;;;;;;5080445;28;20765;-86
2022/04/22 14:31:53;;;;;;;16.63;11.47;;;;;;;;;;5086179;28;20963;-85
2022/04/22 14:34:20;;;;;;;11.70;10.13;;;;;;;;;;5067142;28;20778;-85
2022/04/22 14:36:49;;;;;;;11.50;9.67;;;;;;;;;;5085756;28;20492;-84
2022/04/22 14:39:15;;;;;;;9.93;8.90;;;;;;;;;;5085730;28;20419;-85
2022/04/22 14:41:45;;;;;;;10.17;9.17;;;;;;;;;;5086631;28;20413;-85
2022/04/22 14:44:14;;;;;;;10.37;9.30;;;;;;;;;;5087052;28;20393;-87
2022/04/22 14:46:40;;;;;;;11.13;9.00;;;;;;;;;;5087173;28;20443;-87
2022/04/22 14:49:07;;;;;;;11.50;10.33;;;;;;;;;;5086962;28;20421;-86
2022/04/22 14:51:33;;;;;;;12.00;9.87;;;;;;;;;;5086984;28;20583;-85
2022/04/22 14:53:59;;;;;;;11.40;10.20;;;;;;;;;;5086910;28;20416;-87
2022/04/22 14:56:28;;;;;;;11.50;10.40;;;;;;;;;;5086058;28;20487;-87
2022/04/22 14:58:55;;;;;;;11.67;10.43;;;;;;;;;;5065978;28;20421;-87
2022/04/22 15:01:21;;;;;;;15.63;11.27;;;;;;;;;;5081934;28;20560;-86
2022/04/22 15:03:47;;;;;;;11.20;9.53;;;;;;;;;;5082576;28;20791;-87
2022/04/22 15:06:13;;;;;;;13.70;10.10;;;;;;;;;;5083893;28;20413;-85
2022/04/22 15:08:39;;;;;;;13.40;9.40;;;;;;;;;;5084747;28;20506;-86
2022/04/22 15:11:06;;;;;;;9.80;8.83;;;;;;;;;;5083986;28;20512;-85
2022/04/22 15:13:34;;;;;;;10.23;9.23;;;;;;;;;;5066616;28;20409;-85
2022/04/22 15:16:01;;;;;;;9.93;9.03;;;;;;;;;;5085058;28;20462;-86
2022/04/22 15:24:13;;;;;;;13.63;10.10;;;;;;;;;;5049806;28;20916;-86
2022/04/22 15:26:42;;;;;;;12.10;10.23;;;;;;;;;;5085759;28;20380;-86
2022/04/22 15:29:08;;;;;;;11.33;9.60;;;;;;;;;;5084081;28;20438;-87
2022/04/22 15:31:35;;;;;;;15.17;10.73;;;;;;;;;;5085816;28;20452;-85
2022/04/22 15:34:01;;;;;;;10.73;9.43;;;;;;;;;;5084952;28;20904;-83
2022/04/22 15:36:27;;;;;;;14.10;9.97;;;;;;;;;;5084868;28;20401;-86
2022/04/22 15:38:56;;;;;;;13.00;11.70;;;;;;;;;;5070955;28;20505;-86
2022/04/22 15:41:29;;;;;;;13.20;10.20;;;;;;;;;;5088183;28;20404;-87
2022/04/22 15:43:55;;;;;;;10.57;9.57;;;;;;;;;;5088353;28;20385;-86
2022/04/22 15:46:21;;;;;;;14.07;11.80;;;;;;;;;;5089109;28;20400;-86